Time;durP1;ratioP1;P1;durP2;ratioP2;P2;SDS_P1;SDS_P2;PMS_P1;PMS_P2;Temp;Humidity;BMP_temperature;BMP_pressure;BME280_temperature;BME280_humidity;BME280_pressure;Samples;Min_cycle;Max_cycle;Signal;HPM_P1;HPM_P2
2023/05/23 00:02:16;;;;;;;66.32;44.08;;;18.20;99.90;;;;;;5013722;28;20033;-50
2023/05/23 00:04:43;;;;;;;64.63;42.75;;;18.10;99.90;;;;;;5013005;28;20029;-49
2023/05/23 00:07:08;;;;;;;58.28;41.80;;;18.10;99.90;;;;;;5014001;28;20061;-50
2023/05/23 00:09:34;;;;;;;56.92;41.08;;;18.10;99.90;;;;;;5013669;28;20025;-51
2023/05/23 00:12:00;;;;;;;63.60;40.83;;;18.10;99.90;;;;;;5013850;28;20033;-49
2023/05/23 00:14:25;;;;;;;57.65;39.67;;;18.10;99.90;;;;;;5013897;28;20397;-48
2023/05/23 00:16:51;;;;;;;51.63;37.00;;;18.00;99.90;;;;;;5013900;28;20412;-52
2023/05/23 00:19:16;;;;;;;52.75;40.00;;;18.00;99.90;;;;;;5013435;28;20088;-46
2023/05/23 00:21:47;;;;;;;60.63;40.10;;;18.00;99.90;;;;;;5013448;28;20049;-52
2023/05/23 00:24:13;;;;;;;67.13;42.38;;;18.00;99.90;;;;;;5013802;28;20108;-52
2023/05/23 00:26:39;;;;;;;57.90;39.38;;;17.90;99.90;;;;;;5013872;28;20018;-50
2023/05/23 00:29:04;;;;;;;52.50;39.38;;;17.80;99.90;;;;;;5013132;28;20041;-56
2023/05/23 00:31:30;;;;;;;51.30;38.10;;;17.80;99.90;;;;;;5013553;28;20014;-52
2023/05/23 00:33:56;;;;;;;50.33;36.47;;;17.80;99.90;;;;;;5012058;28;20487;-50
2023/05/23 00:36:21;;;;;;;55.65;36.47;;;17.80;99.90;;;;;;5013917;28;20038;-52
2023/05/23 00:38:48;;;;;;;53.10;36.85;;;17.90;99.90;;;;;;5013422;28;20482;-48
2023/05/23 00:41:14;;;;;;;51.13;38.05;;;17.80;99.90;;;;;;5013247;28;20045;-48
2023/05/23 00:43:39;;;;;;;54.65;37.78;;;17.90;99.90;;;;;;5012887;28;20026;-50
2023/05/23 00:46:05;;;;;;;50.50;36.25;;;17.80;99.90;;;;;;5013077;28;20018;-50
2023/05/23 00:48:31;;;;;;;55.13;37.53;;;17.80;99.90;;;;;;5012843;28;20032;-50
2023/05/23 00:50:57;;;;;;;55.45;37.75;;;17.70;99.90;;;;;;5013180;28;20041;-50
2023/05/23 00:53:23;;;;;;;48.55;34.67;;;17.70;99.90;;;;;;5012833;28;20030;-50
2023/05/23 00:55:49;;;;;;;46.90;34.28;;;17.60;99.90;;;;;;5012947;28;20030;-53
2023/05/23 00:58:16;;;;;;;53.22;36.25;;;17.50;99.90;;;;;;5013018;28;20493;-51
2023/05/23 01:00:46;;;;;;;39.25;32.53;;;17.50;99.90;;;;;;5012412;28;20072;-50
2023/05/23 01:03:16;;;;;;;45.30;34.35;;;17.50;99.90;;;;;;5012556;28;20028;-48
2023/05/23 01:05:43;;;;;;;48.10;35.15;;;17.50;99.90;;;;;;5011780;28;20029;-48
2023/05/23 01:08:08;;;;;;;40.83;31.80;;;17.40;99.90;;;;;;5012843;28;20029;-48
2023/05/23 01:10:34;;;;;;;41.90;29.23;;;17.40;99.90;;;;;;5012381;28;20022;-51
2023/05/23 01:13:24;;;;;;;42.00;30.27;;;17.40;99.90;;;;;;5012423;28;20030;-55
2023/05/23 01:15:57;;;;;;;35.35;27.83;;;17.30;99.90;;;;;;5012959;28;20108;-49
2023/05/23 01:18:36;;;;;;;36.70;27.77;;;17.40;99.90;;;;;;5013085;28;20447;-48
2023/05/23 01:21:23;;;;;;;32.95;26.60;;;17.50;99.90;;;;;;5012752;28;20022;-49
2023/05/23 01:24:07;;;;;;;39.65;28.45;;;17.50;99.90;;;;;;5011844;28;20046;-48
2023/05/23 01:27:06;;;;;;;34.20;28.75;;;17.60;99.90;;;;;;5012457;28;20030;-50
2023/05/23 01:29:37;;;;;;;35.10;27.08;;;17.60;99.90;;;;;;5011981;28;20033;-48
2023/05/23 01:32:05;;;;;;;30.35;26.88;;;17.70;99.90;;;;;;5012143;28;20407;-49
2023/05/23 01:34:34;;;;;;;40.38;28.70;;;17.70;99.90;;;;;;5012296;28;20491;-47
2023/05/23 01:37:00;;;;;;;32.25;28.38;;;17.70;99.90;;;;;;5012296;28;20021;-52
2023/05/23 01:39:25;;;;;;;32.05;28.10;;;17.70;99.90;;;;;;5011808;28;20056;-49
2023/05/23 01:41:52;;;;;;;33.53;27.02;;;17.80;99.90;;;;;;5011912;28;20022;-49
2023/05/23 01:44:19;;;;;;;30.33;26.80;;;17.80;99.90;;;;;;5011887;28;20071;-46
2023/05/23 01:46:46;;;;;;;29.48;26.38;;;17.80;99.90;;;;;;5012126;28;20026;-51
2023/05/23 01:49:15;;;;;;;33.80;26.70;;;17.80;99.90;;;;;;5011722;28;20025;-48
2023/05/23 01:51:41;;;;;;;33.63;27.80;;;17.80;99.90;;;;;;5011728;28;20049;-50
2023/05/23 01:54:07;;;;;;;31.75;25.30;;;17.80;99.90;;;;;;5011986;28;20406;-52
2023/05/23 01:56:33;;;;;;;29.92;26.40;;;17.80;99.90;;;;;;5012001;28;20029;-48
2023/05/23 01:59:00;;;;;;;28.00;25.00;;;17.80;99.90;;;;;;5011284;28;20054;-51
2023/05/23 02:01:26;;;;;;;28.73;25.73;;;17.80;99.90;;;;;;5012062;28;20509;-50
2023/05/23 02:03:52;;;;;;;32.97;26.20;;;17.80;99.90;;;;;;5011486;28;20100;-51
2023/05/23 02:06:17;;;;;;;28.55;25.50;;;17.80;99.90;;;;;;5011825;28;20025;-50
2023/05/23 02:08:43;;;;;;;34.63;26.05;;;17.80;99.90;;;;;;5011486;28;20077;-47
2023/05/23 02:11:09;;;;;;;30.02;26.85;;;17.80;99.90;;;;;;5011722;28;20096;-49
2023/05/23 02:13:35;;;;;;;31.85;26.85;;;17.80;99.90;;;;;;5011384;28;20032;-49
2023/05/23 02:16:00;;;;;;;39.00;28.63;;;17.70;99.90;;;;;;5011482;28;20026;-48
2023/05/23 02:18:28;;;;;;;32.53;27.33;;;17.70;99.90;;;;;;5011369;28;20026;-53
2023/05/23 02:20:55;;;;;;;31.33;27.75;;;17.70;99.90;;;;;;5011638;28;20401;-46
2023/05/23 02:23:20;;;;;;;30.10;25.98;;;17.60;99.90;;;;;;5011395;28;20057;-47
2023/05/23 02:25:46;;;;;;;29.95;26.40;;;17.50;99.90;;;;;;5011693;28;20053;-51
2023/05/23 02:28:12;;;;;;;29.45;25.85;;;17.50;99.90;;;;;;5012039;28;20044;-48
2023/05/23 02:30:38;;;;;;;29.08;25.33;;;17.50;99.90;;;;;;5011640;28;20025;-52
2023/05/23 02:33:05;;;;;;;31.67;25.20;;;17.40;99.90;;;;;;5011942;28;20093;-49
2023/05/23 02:35:31;;;;;;;31.75;22.83;;;17.40;99.90;;;;;;5011617;28;20104;-48
2023/05/23 02:37:56;;;;;;;30.17;22.92;;;17.40;99.90;;;;;;5011630;28;20085;-51
2023/05/23 02:40:21;;;;;;;24.58;21.08;;;17.40;99.90;;;;;;5010873;28;20045;-50
2023/05/23 02:42:47;;;;;;;25.55;21.27;;;17.40;99.90;;;;;;5010976;28;20048;-51
2023/05/23 02:45:12;;;;;;;25.33;20.88;;;17.30;99.90;;;;;;5011372;28;20049;-50
2023/05/23 02:47:38;;;;;;;25.27;20.35;;;17.30;99.90;;;;;;5011531;28;20076;-49
2023/05/23 02:50:04;;;;;;;24.98;20.77;;;17.30;99.90;;;;;;5010974;28;20018;-49
2023/05/23 02:52:30;;;;;;;21.20;18.33;;;17.30;99.90;;;;;;5010971;28;20375;-50
2023/05/23 02:54:56;;;;;;;22.60;19.67;;;17.30;99.90;;;;;;5011443;28;20036;-51
2023/05/23 02:57:21;;;;;;;21.17;17.70;;;17.30;99.90;;;;;;5011203;28;20105;-50
2023/05/23 02:59:47;;;;;;;23.98;18.60;;;17.20;99.90;;;;;;5011090;28;20084;-52
2023/05/23 03:02:12;;;;;;;23.23;18.77;;;17.20;99.90;;;;;;5009953;28;20021;-49
2023/05/23 03:04:38;;;;;;;21.05;16.23;;;17.20;99.90;;;;;;5011187;28;20112;-50
2023/05/23 03:07:05;;;;;;;20.83;17.08;;;17.20;99.90;;;;;;5011373;28;20032;-53
2023/05/23 03:09:30;;;;;;;20.77;17.15;;;17.20;99.90;;;;;;5010857;28;20036;-49
2023/05/23 03:11:56;;;;;;;20.70;17.00;;;17.10;99.90;;;;;;5010912;28;20025;-47
2023/05/23 03:14:21;;;;;;;20.67;16.40;;;17.10;99.90;;;;;;5011171;28;20387;-49
2023/05/23 03:16:47;;;;;;;21.67;16.30;;;17.10;99.90;;;;;;5011345;28;20442;-47
2023/05/23 03:19:13;;;;;;;19.80;16.10;;;17.10;99.90;;;;;;5011015;28;20075;-46
2023/05/23 03:21:38;;;;;;;19.02;16.70;;;17.10;99.90;;;;;;5011056;28;20041;-47
2023/05/23 03:24:04;;;;;;;16.92;15.13;;;17.10;99.90;;;;;;5011565;28;20030;-49
2023/05/23 03:26:29;;;;;;;23.92;15.02;;;17.10;99.90;;;;;;5011483;28;20204;-49
2023/05/23 03:28:55;;;;;;;16.20;14.48;;;17.10;99.90;;;;;;5012701;28;20040;-48
2023/05/23 03:31:20;;;;;;;18.25;14.43;;;17.10;99.90;;;;;;5014789;28;20022;-47
2023/05/23 03:33:46;;;;;;;18.77;15.77;;;17.10;99.90;;;;;;5014260;28;20072;-49
2023/05/23 03:36:11;;;;;;;27.60;16.23;;;17.00;99.90;;;;;;5014557;28;20417;-47
2023/05/23 03:38:37;;;;;;;18.08;15.80;;;17.00;99.90;;;;;;5013900;28;20045;-49
2023/05/23 03:41:02;;;;;;;20.85;17.00;;;17.10;99.90;;;;;;5014157;28;20095;-50
2023/05/23 03:43:28;;;;;;;15.82;14.05;;;17.00;99.90;;;;;;5014035;28;20036;-51
2023/05/23 03:45:53;;;;;;;18.70;14.30;;;17.00;99.90;;;;;;5014076;28;20551;-50
2023/05/23 03:48:19;;;;;;;19.30;15.05;;;17.00;99.90;;;;;;5014458;28;20022;-52
2023/05/23 03:50:45;;;;;;;16.85;13.80;;;17.00;99.90;;;;;;5013982;28;20049;-54
2023/05/23 03:53:11;;;;;;;20.23;14.27;;;16.90;99.90;;;;;;5013967;28;20030;-48
2023/05/23 03:55:38;;;;;;;18.20;14.45;;;17.00;99.90;;;;;;5013887;28;20032;-49
2023/05/23 03:58:03;;;;;;;16.33;14.52;;;17.00;99.90;;;;;;5014398;28;20413;-49
2023/05/23 04:00:28;;;;;;;18.98;14.20;;;17.10;99.90;;;;;;5013701;28;20030;-46
2023/05/23 04:02:54;;;;;;;16.67;14.52;;;17.10;99.90;;;;;;5013858;28;20049;-47
2023/05/23 04:05:20;;;;;;;19.63;16.15;;;17.00;99.90;;;;;;5014076;28;20018;-49
2023/05/23 04:07:46;;;;;;;19.77;15.52;;;16.80;99.90;;;;;;5014204;28;20028;-50
2023/05/23 04:10:11;;;;;;;22.65;16.42;;;16.80;99.90;;;;;;5013620;28;20410;-49
2023/05/23 04:12:40;;;;;;;20.27;17.42;;;16.80;99.90;;;;;;5013852;28;20037;-47
2023/05/23 04:15:06;;;;;;;22.67;17.15;;;16.80;99.90;;;;;;5014159;28;20096;-52
2023/05/23 04:17:32;;;;;;;21.35;16.88;;;16.80;99.90;;;;;;5014061;28;20040;-50
2023/05/23 04:19:58;;;;;;;22.42;17.85;;;16.80;99.90;;;;;;5013613;28;20037;-53
2023/05/23 04:22:23;;;;;;;22.83;18.17;;;16.90;99.90;;;;;;5013564;28;20033;-49
2023/05/23 04:24:49;;;;;;;20.38;15.65;;;16.90;99.90;;;;;;5013506;28;20054;-50
2023/05/23 04:27:14;;;;;;;22.60;17.15;;;16.90;99.90;;;;;;5013825;28;20026;-48
2023/05/23 04:29:40;;;;;;;25.02;17.50;;;16.90;99.90;;;;;;5013311;28;20030;-52
2023/05/23 04:32:07;;;;;;;22.48;18.35;;;16.90;99.90;;;;;;5013263;28;20026;-52
2023/05/23 04:34:32;;;;;;;21.10;18.02;;;16.90;99.90;;;;;;5013546;28;20050;-48
2023/05/23 04:37:01;;;;;;;21.98;17.15;;;16.90;99.90;;;;;;5013475;28;20457;-47
2023/05/23 04:39:26;;;;;;;25.75;19.05;;;17.00;99.90;;;;;;5012457;28;20053;-51
2023/05/23 04:41:53;;;;;;;19.90;17.13;;;17.10;99.90;;;;;;5013083;28;20397;-51
2023/05/23 04:44:19;;;;;;;19.85;16.83;;;17.00;99.90;;;;;;5011876;28;20037;-47
2023/05/23 04:46:44;;;;;;;24.75;19.30;;;17.10;99.90;;;;;;5013347;28;20022;-47
2023/05/23 04:49:11;;;;;;;20.10;17.92;;;17.10;99.90;;;;;;5012838;28;20131;-49
2023/05/23 04:51:37;;;;;;;21.35;17.52;;;17.10;99.90;;;;;;5012895;28;20103;-53
2023/05/23 04:54:03;;;;;;;18.75;16.52;;;17.20;99.90;;;;;;5013073;28;20034;-51
2023/05/23 04:56:29;;;;;;;25.73;18.52;;;17.30;99.90;;;;;;5013268;28;20075;-51
2023/05/23 04:58:55;;;;;;;18.88;15.73;;;17.40;99.90;;;;;;5012646;28;20033;-50
2023/05/23 05:01:23;;;;;;;24.52;17.05;;;17.60;99.90;;;;;;5012964;28;20494;-49
2023/05/23 05:03:49;;;;;;;20.60;17.85;;;17.60;99.90;;;;;;5012474;28;20032;-51
2023/05/23 05:06:15;;;;;;;21.70;18.25;;;17.60;99.90;;;;;;5013000;28;20021;-50
2023/05/23 05:08:41;;;;;;;21.13;18.70;;;17.40;99.90;;;;;;5011487;28;20128;-49
2023/05/23 05:11:06;;;;;;;18.73;16.13;;;17.20;99.90;;;;;;5012749;28;20124;-53
2023/05/23 05:13:32;;;;;;;19.10;15.40;;;17.00;99.90;;;;;;5012618;28;20510;-50
2023/05/23 05:15:57;;;;;;;17.38;15.35;;;16.90;99.90;;;;;;5013246;28;20597;-48
2023/05/23 05:18:25;;;;;;;18.70;14.45;;;16.90;99.90;;;;;;5012734;28;20034;-48
2023/05/23 05:20:50;;;;;;;18.40;14.68;;;16.90;99.90;;;;;;5012914;28;20034;-50
2023/05/23 05:23:16;;;;;;;17.50;14.52;;;16.90;99.90;;;;;;5012193;28;20042;-45
2023/05/23 05:25:41;;;;;;;15.63;13.65;;;16.90;99.90;;;;;;5013078;28;20438;-47
2023/05/23 05:28:07;;;;;;;15.13;12.73;;;16.90;99.90;;;;;;5013237;28;20029;-48
2023/05/23 05:30:34;;;;;;;14.45;12.93;;;16.80;99.90;;;;;;5012409;28;20093;-49
2023/05/23 05:33:01;;;;;;;16.42;12.88;;;16.90;99.90;;;;;;5013010;28;20026;-49
2023/05/23 05:35:27;;;;;;;12.73;11.43;;;16.90;99.90;;;;;;5012976;28;20109;-51
2023/05/23 05:37:52;;;;;;;14.35;12.65;;;17.00;99.90;;;;;;5012890;28;20101;-47
2023/05/23 05:40:18;;;;;;;16.85;12.05;;;17.00;99.90;;;;;;5011987;28;20120;-48
2023/05/23 05:42:43;;;;;;;15.23;11.75;;;17.00;99.90;;;;;;5012165;28;20037;-46
2023/05/23 05:45:10;;;;;;;13.27;11.15;;;17.00;99.90;;;;;;5012765;28;20037;-53
2023/05/23 05:47:37;;;;;;;16.67;10.80;;;17.00;99.90;;;;;;5012193;28;20418;-52
2023/05/23 05:50:08;;;;;;;12.15;10.95;;;17.10;99.90;;;;;;5011689;28;20017;-51
2023/05/23 05:52:37;;;;;;;12.23;10.43;;;17.10;99.90;;;;;;5011676;28;20429;-49
2023/05/23 05:55:06;;;;;;;12.02;10.70;;;17.20;99.90;;;;;;5012055;28;20014;-51
2023/05/23 05:57:32;;;;;;;12.18;10.98;;;17.30;99.90;;;;;;5012208;28;20029;-50
2023/05/23 05:59:58;;;;;;;11.80;10.68;;;17.30;99.90;;;;;;5011650;28;20405;-50
2023/05/23 06:02:23;;;;;;;12.43;10.93;;;17.30;99.90;;;;;;5011597;28;20029;-48
2023/05/23 06:04:49;;;;;;;17.55;12.45;;;17.20;99.90;;;;;;5012056;28;20054;-48
2023/05/23 06:07:15;;;;;;;13.43;12.02;;;17.20;99.90;;;;;;5012283;28;20018;-45
2023/05/23 06:09:40;;;;;;;13.82;12.25;;;17.10;99.90;;;;;;5011697;28;20500;-48
2023/05/23 06:12:06;;;;;;;13.27;12.00;;;17.00;99.90;;;;;;5011826;28;20408;-50
2023/05/23 06:14:32;;;;;;;13.38;12.00;;;17.00;99.90;;;;;;5012073;28;20053;-49
2023/05/23 06:16:57;;;;;;;15.13;12.40;;;16.90;99.90;;;;;;5011934;28;20038;-48
2023/05/23 06:19:23;;;;;;;14.05;12.57;;;16.90;99.90;;;;;;5011368;28;20022;-47
2023/05/23 06:21:49;;;;;;;13.25;11.98;;;17.00;99.90;;;;;;5011552;28;20041;-52
2023/05/23 06:24:14;;;;;;;14.90;11.05;;;17.30;99.90;;;;;;5011740;28;20497;-52
2023/05/23 06:26:40;;;;;;;12.48;11.18;;;17.30;99.90;;;;;;5011890;28;20122;-50
2023/05/23 06:29:05;;;;;;;10.20;9.20;;;17.30;99.90;;;;;;5011401;28;20045;-52
2023/05/23 06:31:31;;;;;;;10.35;9.35;;;17.30;99.90;;;;;;5011763;28;20137;-50
2023/05/23 06:33:56;;;;;;;9.52;8.57;;;17.40;99.90;;;;;;5011205;28;20041;-47
2023/05/23 06:36:22;;;;;;;8.82;8.13;;;17.40;99.90;;;;;;5010376;28;20501;-48
2023/05/23 06:38:47;;;;;;;10.43;9.43;;;17.40;99.90;;;;;;5011289;28;20030;-52
2023/05/23 06:41:13;;;;;;;10.30;9.40;;;17.30;99.90;;;;;;5011324;28;20046;-52
2023/05/23 06:43:38;;;;;;;9.43;8.52;;;17.40;99.90;;;;;;5011126;28;20088;-50
2023/05/23 06:46:04;;;;;;;9.20;8.27;;;17.30;99.90;;;;;;5011501;28;20032;-48
2023/05/23 06:48:29;;;;;;;8.98;8.27;;;17.20;99.90;;;;;;5011037;28;20033;-51
2023/05/23 06:50:55;;;;;;;9.55;8.65;;;17.00;99.90;;;;;;5011360;28;20489;-47
2023/05/23 06:53:20;;;;;;;9.40;8.43;;;16.90;99.90;;;;;;5009825;28;20034;-54
2023/05/23 06:55:46;;;;;;;8.68;7.88;;;16.80;99.90;;;;;;5011592;28;20446;-53
2023/05/23 06:58:11;;;;;;;9.05;8.25;;;16.80;99.90;;;;;;5011434;28;20034;-51
2023/05/23 07:00:37;;;;;;;9.40;8.50;;;16.90;99.90;;;;;;5010920;28;20496;-48
2023/05/23 07:03:03;;;;;;;9.02;8.13;;;16.80;99.90;;;;;;5013023;28;20529;-50
2023/05/23 07:05:29;;;;;;;8.50;7.72;;;16.80;99.90;;;;;;5015085;28;20030;-50
2023/05/23 07:07:55;;;;;;;11.18;8.88;;;16.80;99.90;;;;;;5015236;28;20478;-47
2023/05/23 07:10:21;;;;;;;9.93;8.50;;;16.90;99.90;;;;;;5015037;28;20049;-53
2023/05/23 07:12:47;;;;;;;9.52;8.65;;;16.90;99.90;;;;;;5013630;28;20034;-49
2023/05/23 07:15:13;;;;;;;10.45;9.35;;;16.90;99.90;;;;;;5015102;28;20022;-52
2023/05/23 07:17:39;;;;;;;9.80;8.80;;;16.90;99.90;;;;;;5014988;28;20025;-51
2023/05/23 07:20:06;;;;;;;8.75;7.97;;;16.90;99.90;;;;;;5014595;28;20033;-50
2023/05/23 07:22:31;;;;;;;9.60;8.55;;;16.90;99.90;;;;;;5014655;28;20406;-49
2023/05/23 07:24:56;;;;;;;9.68;8.68;;;17.10;99.90;;;;;;5014778;28;20022;-53
2023/05/23 07:27:22;;;;;;;11.93;8.43;;;16.80;99.90;;;;;;5014829;28;20022;-51
2023/05/23 07:29:48;;;;;;;9.15;7.88;;;16.80;99.90;;;;;;5014522;28;20022;-49
2023/05/23 07:32:13;;;;;;;9.02;8.23;;;16.80;99.90;;;;;;5014439;28;20040;-50
2023/05/23 07:34:40;;;;;;;12.52;8.30;;;16.90;99.90;;;;;;5014544;28;20481;-54
2023/05/23 07:37:05;;;;;;;8.70;7.90;;;16.90;99.90;;;;;;5014822;28;20030;-55
2023/05/23 07:39:30;;;;;;;8.75;7.95;;;16.90;99.90;;;;;;5014140;28;20382;-48
2023/05/23 07:41:56;;;;;;;9.00;8.18;;;16.90;99.90;;;;;;5013079;28;20026;-48
2023/05/23 07:44:21;;;;;;;9.57;7.60;;;17.50;99.90;;;;;;5014318;28;20029;-51
2023/05/23 07:46:47;;;;;;;5.88;5.28;;;19.00;99.90;;;;;;5014438;28;20516;-51
2023/05/23 07:49:12;;;;;;;6.18;5.13;;;20.70;99.90;;;;;;5014024;28;20104;-47
2023/05/23 07:51:38;;;;;;;5.13;4.65;;;22.00;99.90;;;;;;5014059;28;20048;-53
2023/05/23 07:54:04;;;;;;;5.22;4.82;;;23.20;99.90;;;;;;5014240;28;20022;-52
2023/05/23 07:56:30;;;;;;;4.18;3.83;;;23.80;98.70;;;;;;5014304;28;20022;-49
2023/05/23 07:58:55;;;;;;;5.28;4.03;;;24.50;97.60;;;;;;5013783;28;20351;-48
2023/05/23 08:01:21;;;;;;;3.60;3.30;;;25.40;96.00;;;;;;5014001;28;20022;-49
2023/05/23 08:03:47;;;;;;;4.72;3.65;;;25.00;95.60;;;;;;5013729;28;20450;-53
2023/05/23 08:06:13;;;;;;;4.03;3.72;;;24.40;96.60;;;;;;5014092;28;20037;-52
2023/05/23 08:08:38;;;;;;;5.57;3.38;;;23.80;96.70;;;;;;5013739;28;20101;-55
2023/05/23 08:11:04;;;;;;;4.57;4.28;;;23.10;98.10;;;;;;5014129;28;20137;-48
2023/05/23 08:13:30;;;;;;;4.72;4.32;;;22.40;99.40;;;;;;5013325;28;20033;-48
2023/05/23 08:15:55;;;;;;;4.82;4.43;;;22.00;99.80;;;;;;5013544;28;20064;-48
2023/05/23 08:18:21;;;;;;;5.10;4.70;;;21.30;99.90;;;;;;5013875;28;20101;-49
2023/05/23 08:20:46;;;;;;;5.45;4.28;;;20.90;99.90;;;;;;5013457;28;20030;-50
2023/05/23 08:23:12;;;;;;;4.60;4.30;;;20.40;99.90;;;;;;5013534;28;20061;-48
2023/05/23 08:25:38;;;;;;;5.05;4.63;;;20.20;99.90;;;;;;5013807;28;20076;-47
2023/05/23 08:28:04;;;;;;;5.18;4.68;;;20.20;99.90;;;;;;5013783;28;20437;-50
2023/05/23 08:30:31;;;;;;;4.93;4.50;;;20.20;99.90;;;;;;5013161;28;20038;-48
2023/05/23 08:32:57;;;;;;;4.25;3.88;;;20.40;99.90;;;;;;5013262;28;20425;-48
2023/05/23 08:35:23;;;;;;;4.03;3.70;;;20.90;99.90;;;;;;5013717;28;20026;-48
2023/05/23 08:37:49;;;;;;;4.10;3.70;;;21.50;99.90;;;;;;5013619;28;20347;-47
2023/05/23 08:40:19;;;;;;;3.60;3.30;;;21.80;99.90;;;;;;5013270;28;20124;-48
2023/05/23 08:42:48;;;;;;;8.15;3.88;;;22.40;99.90;;;;;;5013127;28;20037;-47
2023/05/23 08:45:15;;;;;;;3.38;3.10;;;22.60;99.90;;;;;;5013110;28;20544;-48
2023/05/23 08:47:43;;;;;;;7.20;3.50;;;22.40;99.90;;;;;;5013490;28;20026;-47
2023/05/23 08:50:14;;;;;;;4.15;3.85;;;22.10;99.90;;;;;;5012923;28;20029;-46
2023/05/23 08:52:45;;;;;;;4.82;4.10;;;21.60;99.90;;;;;;5013072;28;20037;-49
2023/05/23 08:55:11;;;;;;;4.60;3.80;;;21.10;99.90;;;;;;5013330;28;20018;-50
2023/05/23 08:57:38;;;;;;;4.53;4.03;;;20.50;99.90;;;;;;5013077;28;20049;-47
2023/05/23 09:00:13;;;;;;;4.55;4.00;;;20.00;99.90;;;;;;5012763;28;20097;-48
2023/05/23 09:02:39;;;;;;;4.30;3.97;;;19.80;99.90;;;;;;5012762;28;20048;-50
2023/05/23 09:05:05;;;;;;;3.63;3.33;;;19.40;99.90;;;;;;5012888;28;20026;-50
2023/05/23 09:07:30;;;;;;;5.00;4.50;;;19.30;99.90;;;;;;5012923;28;20026;-55
2023/05/23 09:09:56;;;;;;;6.45;4.03;;;19.20;99.90;;;;;;5012369;28;20030;-49
2023/05/23 09:12:22;;;;;;;4.90;4.07;;;19.40;99.90;;;;;;5011280;28;20021;-50
2023/05/23 09:14:47;;;;;;;4.35;3.85;;;19.90;99.90;;;;;;5011185;28;20076;-51
2023/05/23 09:17:19;;;;;;;4.00;3.40;;;20.60;99.90;;;;;;5015618;28;20486;-53
2023/05/23 09:19:48;;;;;;;3.15;2.95;;;20.90;99.90;;;;;;5015115;28;20466;-48
2023/05/23 09:22:13;;;;;;;2.88;2.67;;;21.00;99.90;;;;;;5012675;28;20448;-47
2023/05/23 09:24:40;;;;;;;2.95;2.75;;;21.00;99.90;;;;;;5012583;28;20026;-50
2023/05/23 09:27:06;;;;;;;3.20;3.00;;;20.80;99.90;;;;;;5012042;28;20021;-47
2023/05/23 09:29:35;;;;;;;4.30;2.70;;;20.80;99.90;;;;;;5010789;28;20032;-48
2023/05/23 09:32:17;;;;;;;2.65;2.53;;;20.50;99.90;;;;;;5012087;28;20433;-45
2023/05/23 09:34:57;;;;;;;3.90;2.53;;;19.90;99.90;;;;;;5012766;28;20037;-46
2023/05/23 09:37:33;;;;;;;6.10;3.17;;;19.60;99.90;;;;;;5044204;28;20022;-47
2023/05/23 09:40:00;;;;;;;3.42;3.13;;;19.30;99.90;;;;;;5011739;28;20034;-45
2023/05/23 09:42:33;;;;;;;4.43;3.22;;;19.30;99.90;;;;;;5012092;28;20490;-48
2023/05/23 09:44:59;;;;;;;3.67;3.05;;;19.00;99.90;;;;;;5011103;28;20033;-49
2023/05/23 09:47:25;;;;;;;3.50;3.20;;;18.80;99.90;;;;;;5012423;28;20030;-46
2023/05/23 09:49:51;;;;;;;3.80;3.35;;;18.80;99.90;;;;;;5011645;28;20022;-46
2023/05/23 09:52:18;;;;;;;3.97;3.08;;;18.80;99.90;;;;;;5011880;28;20044;-49
2023/05/23 09:54:45;;;;;;;3.80;3.35;;;18.80;99.90;;;;;;5012032;28;20026;-51
2023/05/23 09:57:12;;;;;;;3.78;3.47;;;18.90;99.90;;;;;;5012066;28;20030;-46
2023/05/23 09:59:40;;;;;;;3.63;3.33;;;18.90;99.90;;;;;;5011600;28;20378;-44
2023/05/23 10:02:10;;;;;;;5.57;4.32;;;18.90;99.90;;;;;;5011424;28;20030;-46
2023/05/23 10:04:37;;;;;;;4.18;3.78;;;19.00;99.90;;;;;;5011652;28;20034;-49
2023/05/23 10:07:14;;;;;;;3.90;3.40;;;19.10;99.90;;;;;;5011797;28;20409;-49
2023/05/23 10:09:42;;;;;;;3.67;3.40;;;19.50;99.90;;;;;;5011465;28;20022;-47
2023/05/23 10:12:16;;;;;;;5.32;3.67;;;20.00;99.90;;;;;;5011540;28;20022;-49
2023/05/23 10:14:46;;;;;;;3.73;3.43;;;20.40;99.90;;;;;;5011641;28;20033;-50
2023/05/23 10:17:20;;;;;;;3.75;3.17;;;20.70;99.90;;;;;;5010993;28;20279;-48
2023/05/23 10:19:58;;;;;;;3.30;3.10;;;21.20;99.90;;;;;;5011391;28;20394;-48
2023/05/23 10:22:24;;;;;;;3.28;2.97;;;21.40;99.90;;;;;;5011666;28;20482;-49
2023/05/23 10:24:50;;;;;;;5.15;2.90;;;21.50;99.90;;;;;;5011136;28;20025;-44
2023/05/23 10:27:16;;;;;;;3.35;3.15;;;21.20;99.90;;;;;;5010985;28;20114;-51
2023/05/23 10:29:42;;;;;;;3.10;2.80;;;20.90;99.90;;;;;;5010890;28;20105;-50
2023/05/23 10:32:09;;;;;;;4.05;3.53;;;20.70;99.90;;;;;;5010972;28;20025;-51
2023/05/23 10:34:50;;;;;;;5.72;3.28;;;20.60;99.90;;;;;;5011202;28;20042;-50
2023/05/23 10:37:34;;;;;;;3.40;3.20;;;20.50;99.90;;;;;;4999842;28;20506;-50
2023/05/23 10:40:33;;;;;;;5.90;3.80;;;20.50;99.90;;;;;;5017645;28;20485;-47
2023/05/23 10:43:02;;;;;;;7.47;6.30;;;20.30;99.90;;;;;;5017724;28;20390;-47
2023/05/23 10:45:27;;;;;;;4.55;4.15;;;20.10;99.90;;;;;;5017845;28;20092;-49
2023/05/23 10:47:53;;;;;;;4.78;4.28;;;20.10;99.90;;;;;;5017964;28;20050;-47
2023/05/23 10:50:33;;;;;;;5.22;3.17;;;20.10;99.90;;;;;;5013814;28;20030;-47
2023/05/23 10:53:01;;;;;;;3.83;3.58;;;20.10;99.90;;;;;;5015069;28;20092;-45
2023/05/23 10:55:34;;;;;;;4.40;3.83;;;20.00;99.90;;;;;;5017783;28;20026;-48
2023/05/23 10:58:14;;;;;;;5.93;3.80;;;19.90;99.90;;;;;;5017575;28;20073;-53
2023/05/23 11:00:49;;;;;;;4.72;4.32;;;19.60;99.90;;;;;;5017107;28;20018;-47
2023/05/23 11:03:16;;;;;;;5.72;4.72;;;19.50;99.90;;;;;;5017237;28;20030;-46
2023/05/23 11:05:51;;;;;;;6.20;5.13;;;19.60;99.90;;;;;;5013669;28;20036;-48
2023/05/23 11:08:19;;;;;;;5.90;5.35;;;19.60;99.90;;;;;;5016872;28;20018;-46
2023/05/23 11:10:50;;;;;;;7.38;6.38;;;19.60;99.90;;;;;;5016884;28;20025;-47
2023/05/23 11:13:16;;;;;;;9.60;6.85;;;19.50;99.90;;;;;;5013946;28;20405;-48
2023/05/23 11:15:43;;;;;;;9.88;7.43;;;19.50;99.90;;;;;;5013834;28;20026;-54
2023/05/23 11:18:10;;;;;;;7.68;6.78;;;19.60;99.90;;;;;;5016372;28;20045;-50
2023/05/23 11:20:36;;;;;;;7.18;6.05;;;19.70;99.90;;;;;;5015727;28;20026;-47
2023/05/23 11:23:06;;;;;;;9.45;6.32;;;19.80;99.90;;;;;;5015296;28;20030;-46
2023/05/23 11:25:40;;;;;;;8.95;6.45;;;20.00;99.90;;;;;;5015931;28;20103;-53
2023/05/23 11:28:05;;;;;;;9.15;6.53;;;20.20;99.90;;;;;;5017493;28;20282;-53
2023/05/23 11:30:32;;;;;;;6.32;5.68;;;20.40;99.90;;;;;;5016928;28;20026;-48
2023/05/23 11:32:58;;;;;;;7.32;5.93;;;20.30;99.90;;;;;;5018377;28;20025;-49
2023/05/23 11:35:23;;;;;;;7.28;5.60;;;20.40;99.90;;;;;;5017138;28;20018;-49
2023/05/23 11:37:49;;;;;;;5.88;5.07;;;20.40;99.90;;;;;;5017580;28;20064;-50
2023/05/23 11:40:37;;;;;;;6.68;5.68;;;20.40;99.90;;;;;;5016700;28;20451;-51
2023/05/23 11:43:08;;;;;;;7.35;5.90;;;20.60;99.90;;;;;;5015649;28;20026;-53
2023/05/23 11:45:35;;;;;;;8.25;6.05;;;20.40;99.90;;;;;;5013578;28;20034;-53
2023/05/23 11:48:05;;;;;;;6.72;5.70;;;20.60;99.90;;;;;;5016974;28;20072;-52
2023/05/23 11:50:30;;;;;;;6.70;5.85;;;20.50;99.90;;;;;;5006489;28;20014;-50
2023/05/23 11:55:39;;;;;;;5.88;4.95;;;20.70;99.90;;;;;;5004946;28;20101;-46
2023/05/23 11:58:05;;;;;;;5.43;4.93;;;20.60;99.90;;;;;;5014249;28;20029;-46
2023/05/23 12:00:31;;;;;;;6.55;5.30;;;20.30;99.90;;;;;;5012629;28;20030;-45
2023/05/23 12:02:56;;;;;;;4.88;4.32;;;20.00;99.90;;;;;;5012665;28;20430;-44
2023/05/23 12:05:21;;;;;;;4.32;3.92;;;19.70;99.90;;;;;;5014124;28;20034;-44
2023/05/23 12:07:48;;;;;;;5.45;4.97;;;19.70;99.90;;;;;;5012951;28;20464;-52
2023/05/23 12:10:20;;;;;;;6.65;4.45;;;19.90;99.90;;;;;;5002440;28;20303;-45
2023/05/23 12:12:46;;;;;;;4.55;4.00;;;20.20;99.90;;;;;;5026429;28;20021;-46
2023/05/23 12:15:12;;;;;;;5.68;5.07;;;20.40;99.90;;;;;;5015531;28;20397;-45
2023/05/23 12:17:38;;;;;;;6.93;5.72;;;20.40;99.90;;;;;;5017800;28;20030;-43
2023/05/23 12:20:07;;;;;;;6.35;5.55;;;20.60;99.90;;;;;;5001653;28;20026;-44
2023/05/23 12:22:33;;;;;;;5.95;5.40;;;20.70;99.90;;;;;;4994984;28;20026;-46
2023/05/23 12:24:59;;;;;;;5.57;5.15;;;20.70;99.90;;;;;;5015807;28;20052;-47
2023/05/23 12:27:29;;;;;;;10.60;4.93;;;20.50;99.90;;;;;;5017457;28;20073;-51
2023/05/23 12:30:09;;;;;;;7.47;5.63;;;20.30;99.90;;;;;;5010092;28;20130;-50
2023/05/23 12:32:42;;;;;;;5.47;5.00;;;20.10;99.90;;;;;;5015869;28;20017;-45
2023/05/23 12:35:09;;;;;;;11.32;7.15;;;20.10;99.90;;;;;;5031449;28;20039;-47
2023/05/23 12:37:38;;;;;;;10.88;5.22;;;20.20;99.90;;;;;;5031907;28;20018;-48
2023/05/23 12:40:18;;;;;;;11.88;5.28;;;20.20;99.90;;;;;;5033514;28;20167;-46